Details for Delta Airlines at KATL




Go Back


Latest METAR
Local Time

KATL 241252Z 18007KT 9SM FEW070 BKN120 17/16 A3021 RMK AO2 SLP223 T01720156

24/02/2018, 08:53:29

Description
Results
Delta Airlines Logo
Number of Pilots based at KATL
0 Pilots Based here
Number of Delta Airlines Flights Departed from KATL
0 Flights Departed
Number of Delta Airlines Flights Arrived at KATL
1 Flights Arrived
Number of Delta Airlines Schedules Departing from KATL
2514 Schedules
Number of Delta Airlines Schedules Arriving at KATL
2570 Schedules
Number of Delta Airlines Schedules Departing from KATL availible today
1087 Schedules Today
Number of Delta Airlines Schedules Arriving at KATL availible today
1082 Schedules Today
Average Landing Rate at KATL
-149 fpm
Delta Airlines Average Landing Rate at KATL
-31 fpm
Total Fuel Purchased at KATL by Delta Airlines
0.00 kgs / 0.00 lbs

Pilots Based at KATL


Pilot ID
Pilot Name
Pilot Rank
No. of Flights
No. of Flying Hours
There are no pilots assigned to this hub!   Will you be the first?
Content